Pilot Magazine UKGA

About You

Log In Register UKGA membership

Flight planning

Flight planning New flightplan NOTAM map LARS map & NOTAMs Danger area, mil. & TRA activations Weather map GPS route download Find waypoints Your waypoints New waypoint

Forums

Forums Currently discussing "GP LAPL medical via CAA/Cellma"

Other items

Articles Events Links News Surveys Tips Other users Feedback UKGA membership About UKGA

TAFs

UK

TAF EGAA 181056Z 1812/1912 24004KT 9999 FEW008 SCT045 
      TEMPO 1902/1910 BKN008 
      TEMPO 1902/1906 7000 RA PROB30 
      TEMPO 1904/1907 4000 RADZ BKN004 PROB30 
      TEMPO 1910/1912 8000 -SHRA
      
TAF EGAC 181357Z 1815/1821 VRB04KT 9999 FEW025 SCT030
      
TAF EGAE 181100Z 1812/1816 02003KT 9999 FEW020 SCT045
      
TAF EGBB 181057Z 1812/1912 VRB03KT 9999 FEW040 PROB30 
      TEMPO 1812/1820 7000 SHRA 
      TEMPO 1900/1906 7000 PROB30 
      TEMPO 1904/1906 4000 BR 
      TEMPO 1906/1912 7000 -RA BKN014 PROB40 
      TEMPO 1908/1912 4000 RA BKN009
      
TAF EGBJ 181356Z 1815/1819 18004KT 9999 SCT030 PROB40 
      TEMPO 1815/1819 7000 SHRA
      
TAF EGCC 181056Z 1812/1918 16005KT 9999 SCT025 PROB30 
      TEMPO 1814/1821 8000 -SHRA PROB30 
      TEMPO 1821/1903 8000 
      TEMPO 1903/1908 4000 RADZ BR BKN006 PROB30 
      TEMPO 1903/1910 8000 -RA BKN010 
      TEMPO 1910/1918 8000 -RA PROB30 
      TEMPO 1910/1918 RA SHRA BKN014
      
TAF EGCK 181356Z 1815/1824 03004KT 9999 FEW020 SCT030 
      TEMPO 1815/1824 6000 -RADZ BKN008 PROB30 
      TEMPO 1819/1824 3000 RADZ BKN002
      
TAF EGCN 181057Z 1812/1912 17004KT 9999 SCT025 PROB30 
      TEMPO 1815/1820 7000 -SHRA 
      TEMPO 1820/1908 8000 PROB30 
      TEMPO 1902/1908 4000 BR 
      TEMPO 1908/1912 BKN010 PROB30 
      TEMPO 1909/1912 4000 RA SHRA BKN008
      
TAF EGDM 171019Z 1712/1717 17010KT 9999 SCT028 PROB40 
      TEMPO 1712/1713 SCT023
      
TAF EGDR 170753Z 1709/1718 17015KT 9999 SCT008 
      TEMPO 1709/1718 8000 SHRA SCT005 OVC010 
      TEMPO 1709/1718 4000 +SHRA SCT003 BKN014CB 
      BECMG 1709/1711 19020G30KT
      
TAF EGDY 171103Z 1712/1721 19010KT 9999 SCT030 
      TEMPO 1720/1721 7000 HZ
      
TAF EGEC 171358Z 1715/1717 28006KT 9999 SCT008 BKN020 
      TEMPO 1715/1717 6000 -RADZ BKN007 PROB30 
      TEMPO 1715/1717 2500 RADZ BKN004
      
TAF EGEO 181400Z 1815/1817 14008KT 9999 FEW014 SCT040 PROB30 
      TEMPO 1815/1816 8000 -SHRA BKN012
      
TAF EGFF 181058Z 1812/1912 12007KT 9999 SCT025 PROB40 
      TEMPO 1812/1819 6000 SHRA 
      BECMG 1821/1824 29010KT 
      TEMPO 1822/1903 3000 -RADZ BR BKN006 PROB30 
      TEMPO 1903/1912 6000 SHRA
      
TAF EGGD 181058Z 1812/1912 VRB04KT 9999 FEW030 
      TEMPO 1812/1819 6000 SHRA 
      BECMG 1820/1823 6000 PROB40 1823/1903 3000 BR 
      TEMPO 1903/1906 3000 -RADZ BR BKN004 
      BECMG 1906/1909 9999 
      TEMPO 1906/1912 4000 SHRA BKN008
      
TAF EGGP 181056Z 1812/1912 16003KT 9999 SCT025 PROB30 
      TEMPO 1814/1821 8000 -SHRA PROB30 
      TEMPO 1821/1824 8000 -RA 
      TEMPO 1900/1908 7000 RA BKN010 PROB30 
      TEMPO 1900/1908 4000 RADZ BKN006 
      TEMPO 1908/1912 8000 -RA PROB30 
      TEMPO 1910/1912 RA SHRA BKN014
      
TAF EGGW 181058Z 1812/1912 14007KT 9999 FEW040 PROB30 1822/1901 8000 
      TEMPO 1901/1910 6000 PROB30 1902/1908 2000 BR 
      TEMPO 1910/1912 6000 RA SHRA PROB30 
      TEMPO 1911/1912 4000 +SHRA BKN008
      
TAF EGHC 181356Z 1815/1818 35012KT 9999 FEW014 PROB30 
      TEMPO 1815/1817 8000 -RA BKN010
      
TAF EGHE 181356Z 1815/1818 33014KT 9999 FEW020
      
TAF EGHH 181356Z 1815/1824 15008KT 9999 FEW020 
      TEMPO 1821/1824 7000 PROB30 
      TEMPO 1822/1824 4000 BR
      
TAF EGHI 181356Z 1815/1821 14007KT 9999 FEW020 PROB30 
      TEMPO 1815/1818 7000 SHRA
      
TAF EGHQ 181356Z 1815/1824 30010KT 9999 BKN024 
      TEMPO 1815/1821 8000 -RA BKN012 PROB30 
      TEMPO 1815/1819 4000 RA BR BKN008 
      BECMG 1821/1824 19004KT
      
TAF EGJA 181403Z 1815/1900 11006KT 9999 FEW012 PROB30 
      TEMPO 1815/1900 6000 SHRA BKN015TCU
      
TAF EGJB 181403Z 1815/1900 11007KT 9999 FEW012 PROB30 
      TEMPO 1815/1900 6000 SHRA BKN015TCU
      
TAF EGJJ 181403Z 1815/1900 14008KT 9999 FEW012 PROB30 
      TEMPO 1815/1900 6000 SHRA BKN015TCU
      
TAF EGKA 181400Z 1815/1819 12007KT 9999 FEW045
      
TAF EGKB 181400Z 1815/1822 15008KT 9999 FEW040
      
TAF EGKK 181053Z 1812/1918 14006KT 9999 FEW040 
      TEMPO 1822/1909 8000 PROB30 
      TEMPO 1902/1908 3000 BR MIFG BKN007 PROB30 
      TEMPO 1908/1911 BKN012 
      BECMG 1912/1915 31010KT 
      TEMPO 1912/1918 6000 RA SHRA PROB30 
      TEMPO 1912/1918 4000 +SHRA BKN008
      
TAF EGLC 180759Z 1809/1812 13005KT 9999 FEW040 PROB30 
      TEMPO 1809/1810 9000
      
TAF EGLF 181400Z 1815/1819 14008KT 9999 FEW045
      
TAF EGLL 181053Z 1812/1918 17010KT 9999 FEW035 
      BECMG 1818/1821 10003KT PROB30 
      TEMPO 1900/1906 7000 PROB30 
      TEMPO 1906/1912 7000 RA BKN012 
      BECMG 1909/1912 21010KT 
      TEMPO 1912/1918 7000 RA SHRA BKN012 PROB30 
      TEMPO 1912/1918 4000 +SHRA BKN008
      
TAF EGMC 181400Z 1815/1824 13010KT 9999 FEW045
      
TAF EGMD 181400Z 1815/1824 09009KT 9999 FEW045
      
TAF EGNH 181356Z 1815/1820 20006KT 9999 SCT020 PROB30 
      TEMPO 1815/1820 8000 -RA
      
TAF EGNJ 181356Z 1815/1824 17008KT 9999 FEW025 PROB30 
      TEMPO 1815/1820 8000 -SHRA
      
TAF EGNM 181057Z 1812/1912 15004KT 9999 SCT025 PROB30 
      TEMPO 1815/1820 7000 -SHRA 
      TEMPO 1822/1906 8000 BKN010 PROB30 
      TEMPO 1903/1908 4000 BR BKN006 
      TEMPO 1908/1912 BKN010 PROB30 
      TEMPO 1908/1912 4000 RA SHRA BKN008
      
TAF EGNO 171357Z 1715/1718 18009KT 9999 FEW025
      
TAF EGNR 181356Z 1815/1818 14006KT 9999 SCT025 PROB30 
      TEMPO 1815/1818 8000 -SHRA
      
TAF EGNS 181400Z 1815/1821 VRB06KT 9999 FEW010 BKN045 
      TEMPO 1817/1821 8000 -RA BKN010 PROB30 
      TEMPO 1817/1821 4000 RA BKN006
      
TAF EGNT 181057Z 1812/1912 17005KT 9999 SCT025 PROB30 
      TEMPO 1812/1823 8000 
      TEMPO 1823/1903 8000 PROB30 
      TEMPO 1903/1908 8000 -RA BKN008 PROB30 
      TEMPO 1908/1912 4000 RA SHRA BKN008
      
TAF EGNV 181356Z 1815/1821 17004KT 9999 FEW025 PROB30 
      TEMPO 1818/1821 8000
      
TAF EGNX 181057Z 1812/1912 VRB03KT 9999 FEW030 PROB30 
      TEMPO 1812/1820 7000 SHRA 
      BECMG 1819/1822 14010KT 
      BECMG 1900/1903 VRB03KT 
      TEMPO 1900/1906 7000 
      TEMPO 1906/1912 7000 -RA BKN014 PROB40 
      TEMPO 1908/1912 4000 RA BKN009
      
TAF EGOS 171042Z 1712/1717 18010KT 9999 BKN028 
      TEMPO 1712/1713 BKN022
      
TAF EGOV 171342Z 1715/1724 17015G25KT 9999 FEW014 BKN022 PROB40 
      TEMPO 1715/1718 4000 -RADZ BKN014 
      BECMG 1716/1718 27005KT SCT005
      
TAF EGOW 171542Z 1715/1718 CNL
      
TAF EGPA 181400Z 1815/1824 16008KT 9999 FEW007 SCT046 PROB30 
      TEMPO 1818/1821 BKN007 PROB40 
      TEMPO 1821/1824 BKN004
      
TAF EGPB 181400Z 1815/1824 18006KT 9999 SCT004 
      TEMPO 1815/1824 9000 BKN004
      
TAF EGPC 181400Z 1815/1824 16008KT 9999 FEW045 PROB30 
      TEMPO 1818/1824 BKN006
      
TAF EGPD 181054Z 1812/1912 14006KT 9999 FEW010 SCT025 PROB30 
      TEMPO 1812/1815 BKN008 
      BECMG 1821/1824 BKN004 
      TEMPO 1821/1909 4000 RADZ BR BKN001 PROB40 
      TEMPO 1821/1908 2500 +RA 
      BECMG 1909/1912 BKN016 PROB30 
      TEMPO 1909/1912 7000 SHRA
      
TAF EGPE 181400Z 1815/1824 20006KT 9999 SCT025 PROB30 
      TEMPO 1818/1824 8000
      
TAF EGPF 181054Z 1812/1912 VRB04KT 9999 FEW010 SCT025 PROB40 
      TEMPO 1821/1824 7000 -RA BKN012 
      TEMPO 1900/1909 7000 -RA BKN012 PROB30 
      TEMPO 1900/1906 3000 RADZ BKN006 PROB30 
      TEMPO 1909/1912 7000 SHRA BKN012
      
TAF EGPH 181054Z 1812/1912 30003KT 9999 FEW008 
      BECMG 1813/1816 06010KT 
      TEMPO 1818/1906 6000 -RA BKN012 PROB40 
      TEMPO 1821/1909 3000 RADZ BKN004 
      BECMG 1903/1906 27004KT PROB30 
      TEMPO 1909/1912 7000 SHRA BKN012
      
TAF EGPI 181400Z 1815/1818 15008KT 9999 FEW045 PROB30 
      TEMPO 1815/1817 8000 -SHRA BKN010
      
TAF EGPK 181054Z 1812/1912 23003KT 9999 FEW020 SCT045 PROB40 
      TEMPO 1820/1824 7000 -RA BKN012 
      TEMPO 1900/1909 7000 -RA BKN012 PROB30 
      TEMPO 1900/1906 3000 RADZ BKN006 PROB30 
      TEMPO 1909/1912 7000 SHRA BKN008
      
TAF EGPL 181057Z 1812/1815 18012KT 9999 FEW020 SCT040 PROB30 
      TEMPO 1812/1815 7000 SHRA BKN012
      
TAF EGPN 181100Z 1812/1816 23006KT 9999 FEW040 
      BECMG 1812/1815 09010KT
      
TAF EGPO 181400Z 1815/1824 16010KT 9999 FEW014 SCT030 PROB30 
      TEMPO 1815/1818 8000 -SHRA BKN012
      
TAF EGPU 181400Z 1815/1818 19012KT 9999 FEW012 SCT045 PROB30 
      TEMPO 1815/1818 7000 SHRA BKN012
      
TAF EGQL 181333Z 1815/1824 11008KT 9999 FEW040 PROB30 
      TEMPO 1816/1818 SCT014 
      TEMPO 1818/1824 2000 BR SCT004 BKN007 PROB40 
      TEMPO 1820/1824 +RA PROB30 
      TEMPO 1821/1824 0500 FG OVC000
      
TAF EGQS 181341Z 1815/1909 09007KT 9999 BKN045 
      TEMPO 1823/1909 6000 RA 
      TEMPO 1901/1909 SCT010 PROB30 
      TEMPO 1903/1908 2000 BR BKN002
      
TAF EGSC 171358Z 1715/1719 22010KT 9999 SCT030 
      BECMG 1715/1718 16005KT
      
TAF EGSH 181357Z 1815/1824 16009KT 9999 FEW035 PROB30 
      TEMPO 1815/1820 8000 -SHRA 
      TEMPO 1821/1824 8000 PROB30 
      TEMPO 1822/1824 4000 BR
      
TAF EGSS 181058Z 1812/1918 15008KT 9999 FEW040 PROB30 1822/1901 8000 
      TEMPO 1901/1910 6000 PROB30 1902/1908 2000 BR 
      TEMPO 1911/1918 6000 RA SHRA PROB30 
      TEMPO 1911/1918 4000 +SHRA BKN008
      
TAF EGSY 181059Z 1812/1816 10004KT 9999 SCT045 
      TEMPO 1812/1816 7000 SHRA
      
TAF EGTC 181400Z 1815/1818 17006KT 9999 SCT040 PROB30 
      TEMPO 1815/1818 7000 SHRA
      
TAF EGTE 181356Z 1815/1817 17008KT 9999 FEW020 PROB30 
      TEMPO 1815/1817 7000 RA BKN008
      
TAF EGTK 181400Z 1815/1822 VRB03KT 9999 SCT045 PROB30 
      TEMPO 1815/1818 7000 SHRA
      
TAF EGUB 171021Z 1712/1715 21010KT 9999 FEW030
      
TAF AMD EGUL 171700Z 1717/1819 22012KT 9999 BKN020 QNH2989INS 
      BECMG 1719/1720 19006KT 8000 BR SCT030 QNH2990INS 
      BECMG 1722/1723 18006KT 5000 BR FEW005 SCT030 QNH2991INS 
      BECMG 1807/1808 18009KT 8000 BR BKN005 BKN030 QNH2992INS 
      BECMG 1811/1812 16012KT 9999 NSW BKN030 QNH2993INS TX20/1717Z TN12/1803Z LAST NO 
      AMDS AFT 1717 NEXT 2005
      
TAF EGUN 181200Z 1812/1918 15009KT 9999 SCT040 BKN070 QNH2992INS 
      BECMG 1820/1821 13006KT 9999 FEW040 SCT070 QNH2988INS 
      BECMG 1902/1903 13006KT 8000 BR FEW020 BKN050 QNH2988INS 
      TEMPO 1904/1908 4000 BR 
      BECMG 1908/1909 14009KT 9999 VCSH FEW010 BKN030 OVC060 QNH2990INS 
      TEMPO 1912/1918 8000 -SHRA VCTS BKN010CB TX23/1814Z TN14/1905Z
      
TAF EGUW 171342Z 1715/1719 19008KT 9999 FEW040
      
TAF AMD EGVA 181145Z 1811/1913 VRB06KT 9999 FEW020 QNH2991INS 
      BECMG 1811/1812 17010G15KT 9999 SCT030 QNH2987INS 
      TEMPO 1812/1817 8000 -RA BKN030 
      BECMG 1817/1818 VRB06KT 9999 BKN030 OVC045 QNH2989INS 
      BECMG 1818/1819 VRB06KT 9999 BKN030 OVC045 QNH2987INS 
      BECMG 1903/1904 VRB06KT 5000 BR FEW014 FEW021 BKN029 QNH2987INS 
      BECMG 1904/1905 VRB06KT 1800 BR OVC015 QNH2987INS 
      TEMPO 1905/1908 0800 FG OVC000 
      BECMG 1911/1912 29009KT 9999 NSW BKN015 OVC025 QNH2995INS TX21/1813Z TN13/1905Z LAST NO 
      AMDS AFT 1812 NEXT 2006
      
TAF EGVN 181342Z 1815/1915 17005KT 9999 SCT035 PROB30 
      TEMPO 1815/1818 6000 SHRA PROB40 1823/1903 5000 BR PROB40 
      TEMPO 1903/1908 4000 -RA BKN008 PROB30 
      TEMPO 1903/1907 2000 BR BKN004 PROB30 
      TEMPO 1912/1915 7000 -SHRA
      
TAF EGVO 171617Z 1718/1806 14008KT 9999 FEW030 PROB40 1722/1806 6000 BR PROB30 1801/1806 0500 FG VV///
      
TAF EGVP 171343Z 1713/1717 CNL
      
TAF EGWU 181318Z 1815/1909 16008KT 9999 FEW045 PROB30 
      TEMPO 1906/1909 5000 RA SCT010 BKN050CB
      
TAF EGXC 181319Z 1815/1909 15008KT 9999 SCT035 PROB30 1902/1909 6000 HZ PROB30 
      TEMPO 1907/1909 SCT010
      
TAF EGXE 171051Z 1712/1717 19010KT 9999 SCT030
      
TAF EGXP 180724Z 1809/1818 17008KT 9999 SCT030
      
TAF EGXT 171555Z 1715/1718 CNL
      
TAF EGXW 171254Z 1712/1806 CNL= TAF KHIF 171300Z 1713/1819 10010G15KT 9999 SKC QNH3006INS 
      BECMG 1718/1719 24009KT 9999 FEW250 QNH3019INS 
      BECMG 1802/1803 09012G18KT 9999 SKC QNH3010INS 
      BECMG 1813/1814 24015G20KT 9999 VCTS FEW080 SCT120 QNH3010INS 
      BECMG 1818/1819 24025G30KT 9000 -TSRA BKN070 OVC100 QNH3012INS TX28/1722Z TN12/1813Z
      
TAF EGYD 171546Z 1712/1717 CNL
      
TAF EGYM 171033Z 1712/1718 22009KT 9999 SCT025 
      TEMPO 1712/1714 SCT020
      
TAF EGYP 181326Z 1815/1909 23007KT 9999 BKN030
      

About You

Log In Register UKGA membership

Airfields

Interactive airfield map Search by name Search by postcode Search by location Fuel prices Pilot reviews Latest
(No favourites selected)

Flight planning

Flight planning New flightplan NOTAM map LARS map & NOTAMs Danger area, mil. & TRA activations Weather map GPS route download Find waypoints Your waypoints New waypoint

Forums

Forums Currently discussing "GP LAPL medical via CAA/Cellma"

Other items

Articles Events Links News Surveys Tips Other users Feedback UKGA membership About UKGA